Time;durP1;ratioP1;P1;durP2;ratioP2;P2;SDS_P1;SDS_P2;PMS_P1;PMS_P2;Temp;Humidity;BMP_temperature;BMP_pressure;BME280_temperature;BME280_humidity;BME280_pressure;Samples;Min_cycle;Max_cycle;Signal;HPM_P1;HPM_P2
2023/01/03 00:00:21;;;;;;;9.93;1.52;;;;;;;;;;5100449;28;20059;-67
2023/01/03 00:02:47;;;;;;;11.23;1.65;;;;;;;;;;5091736;28;20126;-67
2023/01/03 00:05:13;;;;;;;8.13;1.30;;;;;;;;;;5099229;28;20093;-67
2023/01/03 00:07:39;;;;;;;9.75;1.92;;;;;;;;;;5100303;28;20427;-67
2023/01/03 00:10:08;;;;;;;9.55;1.35;;;;;;;;;;5099927;28;20384;-67
2023/01/03 00:12:35;;;;;;;9.60;1.90;;;;;;;;;;5099402;27;20047;-67
2023/01/03 00:15:02;;;;;;;12.88;1.80;;;;;;;;;;5098876;28;20044;-67
2023/01/03 00:17:28;;;;;;;12.00;1.63;;;;;;;;;;5096854;28;20147;-67
2023/01/03 00:19:54;;;;;;;9.82;1.65;;;;;;;;;;5092704;28;20188;-67
2023/01/03 00:22:20;;;;;;;7.38;1.45;;;;;;;;;;5098480;28;20044;-67
2023/01/03 00:24:47;;;;;;;3.53;1.02;;;;;;;;;;5102428;28;20723;-67
2023/01/03 00:27:14;;;;;;;7.80;1.50;;;;;;;;;;5103179;28;20183;-67
2023/01/03 00:29:41;;;;;;;8.77;1.55;;;;;;;;;;5094330;28;20047;-67
2023/01/03 00:32:08;;;;;;;7.57;1.50;;;;;;;;;;5094277;28;20044;-67
2023/01/03 00:34:35;;;;;;;5.55;1.50;;;;;;;;;;5101911;28;20051;-67
2023/01/03 00:37:01;;;;;;;6.75;1.35;;;;;;;;;;5090608;28;20051;-67
2023/01/03 00:39:27;;;;;;;10.95;2.28;;;;;;;;;;5101684;28;20063;-67
2023/01/03 00:41:54;;;;;;;10.63;2.03;;;;;;;;;;5101235;28;20056;-67
2023/01/03 00:44:20;;;;;;;10.30;2.05;;;;;;;;;;5102874;28;20046;-67
2023/01/03 00:46:46;;;;;;;9.13;1.65;;;;;;;;;;5102445;28;20080;-67
2023/01/03 00:49:13;;;;;;;7.43;1.55;;;;;;;;;;5100484;28;20047;-67
2023/01/03 00:51:40;;;;;;;13.52;2.05;;;;;;;;;;5102158;28;20036;-67
2023/01/03 00:54:07;;;;;;;7.72;1.60;;;;;;;;;;5102151;28;20039;-67
2023/01/03 00:56:35;;;;;;;8.15;1.50;;;;;;;;;;5099199;27;20055;-67
2023/01/03 00:59:02;;;;;;;6.65;1.58;;;;;;;;;;5093037;27;20043;-67
2023/01/03 01:01:29;;;;;;;14.98;2.33;;;;;;;;;;5097116;28;20447;-67
2023/01/03 01:03:58;;;;;;;7.97;2.00;;;;;;;;;;5095851;28;20039;-67
2023/01/03 01:06:26;;;;;;;9.50;1.60;;;;;;;;;;5098946;27;21506;-67
2023/01/03 01:08:54;;;;;;;7.82;1.75;;;;;;;;;;5097714;27;20036;-67
2023/01/03 01:11:20;;;;;;;9.27;1.65;;;;;;;;;;5096985;28;20039;-67
2023/01/03 01:13:46;;;;;;;9.90;1.63;;;;;;;;;;5089022;28;20040;-67
2023/01/03 01:16:14;;;;;;;7.00;1.70;;;;;;;;;;5100867;28;20502;-67
2023/01/03 01:18:41;;;;;;;8.85;1.85;;;;;;;;;;5098023;28;20511;-67
2023/01/03 01:21:08;;;;;;;9.77;1.95;;;;;;;;;;5097962;28;20652;-67
2023/01/03 01:23:35;;;;;;;11.23;1.73;;;;;;;;;;5094138;28;20139;-67
2023/01/03 01:26:02;;;;;;;8.02;1.77;;;;;;;;;;5090654;28;20478;-67
2023/01/03 01:28:28;;;;;;;9.88;2.38;;;;;;;;;;5090753;28;20490;-67
2023/01/03 01:30:57;;;;;;;6.22;2.13;;;;;;;;;;5090117;28;20055;-67
2023/01/03 01:33:23;;;;;;;14.07;2.47;;;;;;;;;;5098798;28;20496;-67
2023/01/03 01:35:49;;;;;;;8.30;2.13;;;;;;;;;;5101214;28;20062;-68
2023/01/03 01:38:15;;;;;;;12.48;2.38;;;;;;;;;;5092891;28;20092;-67
2023/01/03 01:40:42;;;;;;;7.53;1.90;;;;;;;;;;5101082;28;20058;-67
2023/01/03 01:46:02;;;;;;;11.63;2.58;;;;;;;;;;5099162;28;20047;-67
2023/01/03 01:48:29;;;;;;;9.73;2.00;;;;;;;;;;5101004;28;20047;-67
2023/01/03 01:50:56;;;;;;;7.68;1.77;;;;;;;;;;5101160;28;20056;-67
2023/01/03 01:53:24;;;;;;;10.93;1.92;;;;;;;;;;5097934;28;20097;-67
2023/01/03 01:55:58;;;;;;;8.10;1.23;;;;;;;;;;5097401;28;20372;-68
2023/01/03 01:58:31;;;;;;;7.25;1.60;;;;;;;;;;5098841;28;20039;-67
2023/01/03 02:00:57;;;;;;;11.82;1.83;;;;;;;;;;5089943;28;20071;-67
2023/01/03 02:03:24;;;;;;;4.82;1.45;;;;;;;;;;5097454;28;20054;-68
2023/01/03 02:05:51;;;;;;;5.60;1.50;;;;;;;;;;5099992;28;20521;-68
2023/01/03 02:08:18;;;;;;;6.82;1.83;;;;;;;;;;5089752;28;20624;-67
2023/01/03 02:10:50;;;;;;;7.95;1.98;;;;;;;;;;5089857;28;20048;-67
2023/01/03 02:13:22;;;;;;;6.30;1.70;;;;;;;;;;5097930;28;20051;-67
2023/01/03 02:15:56;;;;;;;9.02;1.75;;;;;;;;;;5099431;28;20044;-67
2023/01/03 02:18:31;;;;;;;9.98;1.58;;;;;;;;;;5097911;28;20058;-67
2023/01/03 02:21:01;;;;;;;6.43;1.77;;;;;;;;;;5091132;28;20051;-67
2023/01/03 02:23:34;;;;;;;6.80;2.00;;;;;;;;;;5092244;28;20551;-67
2023/01/03 02:26:16;;;;;;;8.82;2.22;;;;;;;;;;5104357;28;20104;-67
2023/01/03 02:28:45;;;;;;;12.52;2.88;;;;;;;;;;5099437;28;20043;-68
2023/01/03 02:31:17;;;;;;;8.05;2.80;;;;;;;;;;5104258;28;20078;-67
2023/01/03 02:33:53;;;;;;;12.13;2.15;;;;;;;;;;5093589;28;20149;-67
2023/01/03 02:36:26;;;;;;;9.55;3.10;;;;;;;;;;5091149;27;20051;-67
2023/01/03 02:38:57;;;;;;;15.98;3.40;;;;;;;;;;5099274;28;20039;-67
2023/01/03 02:41:24;;;;;;;10.45;3.00;;;;;;;;;;5101465;27;20514;-67
2023/01/03 02:43:53;;;;;;;10.07;2.75;;;;;;;;;;5101792;27;20052;-68
2023/01/03 02:46:29;;;;;;;11.48;3.30;;;;;;;;;;5100556;28;20043;-68
2023/01/03 02:49:03;;;;;;;5.85;2.72;;;;;;;;;;5096583;28;20138;-68
2023/01/03 02:51:35;;;;;;;11.25;2.33;;;;;;;;;;5100312;28;20054;-68
2023/01/03 02:54:03;;;;;;;7.30;2.53;;;;;;;;;;5102364;28;20490;-68
2023/01/03 02:56:34;;;;;;;9.85;2.47;;;;;;;;;;5103069;27;20118;-67
2023/01/03 02:59:02;;;;;;;11.05;2.58;;;;;;;;;;5095655;28;20052;-68
2023/01/03 03:01:29;;;;;;;8.15;2.55;;;;;;;;;;5101124;28;20043;-67
2023/01/03 03:03:56;;;;;;;5.43;2.15;;;;;;;;;;5100243;27;20044;-67
2023/01/03 03:06:29;;;;;;;6.97;3.03;;;;;;;;;;5091925;27;20050;-67
2023/01/03 03:08:55;;;;;;;9.52;2.33;;;;;;;;;;5103858;28;20073;-67
2023/01/03 03:14:10;;;;;;;11.88;1.80;;;;;;;;;;5101049;28;20138;-67
2023/01/03 03:16:50;;;;;;;5.40;2.00;;;;;;;;;;5101521;27;20077;-67
2023/01/03 03:24:57;;;;;;;5.55;1.77;;;;;;;;;;5099886;28;20039;-67
2023/01/03 03:30:27;;;;;;;7.15;1.67;;;;;;;;;;5093635;28;20043;-67
2023/01/03 03:32:55;;;;;;;8.13;2.10;;;;;;;;;;5100037;28;20145;-67
2023/01/03 03:35:24;;;;;;;10.40;1.90;;;;;;;;;;5099403;27;20051;-67
2023/01/03 03:37:53;;;;;;;5.10;1.75;;;;;;;;;;5098381;28;20043;-67
2023/01/03 03:46:01;;;;;;;6.55;1.90;;;;;;;;;;5099803;28;20107;-68
2023/01/03 03:49:36;;;;;;;7.65;2.03;;;;;;;;;;5097432;27;20044;-67
2023/01/03 03:51:19;;;;;;;11.65;2.13;;;;;;;;;;5102007;28;20135;-67
2023/01/03 03:53:46;;;;;;;6.97;1.92;;;;;;;;;;5099529;28;20032;-67
2023/01/03 03:56:14;;;;;;;9.25;2.50;;;;;;;;;;5101494;28;20440;-68
2023/01/03 03:58:42;;;;;;;4.20;1.52;;;;;;;;;;5102887;28;20047;-67
2023/01/03 04:01:09;;;;;;;9.18;1.80;;;;;;;;;;5100496;27;20600;-67
2023/01/03 04:03:36;;;;;;;8.15;2.50;;;;;;;;;;5102048;27;20431;-68
2023/01/03 04:06:07;;;;;;;9.55;2.17;;;;;;;;;;5100453;28;20518;-67
2023/01/03 04:08:33;;;;;;;11.48;2.20;;;;;;;;;;5100656;27;20066;-67
2023/01/03 04:11:06;;;;;;;8.02;2.20;;;;;;;;;;5099688;28;20050;-67
2023/01/03 04:13:33;;;;;;;15.68;3.00;;;;;;;;;;5098854;28;20130;-67
2023/01/03 04:15:59;;;;;;;7.55;2.55;;;;;;;;;;5100147;28;20035;-68
2023/01/03 04:18:25;;;;;;;5.88;2.47;;;;;;;;;;5101432;28;20052;-67
2023/01/03 04:20:51;;;;;;;9.80;2.63;;;;;;;;;;5089265;27;20093;-67
2023/01/03 04:23:17;;;;;;;9.35;3.00;;;;;;;;;;5080178;28;20055;-68
2023/01/03 04:25:44;;;;;;;10.27;2.92;;;;;;;;;;5098169;27;20126;-68
2023/01/03 04:28:10;;;;;;;11.43;2.72;;;;;;;;;;5099063;27;20047;-67
2023/01/03 04:30:36;;;;;;;7.95;2.78;;;;;;;;;;5102666;28;20072;-67
2023/01/03 04:33:04;;;;;;;7.90;3.03;;;;;;;;;;5094351;28;20035;-67
2023/01/03 04:35:30;;;;;;;8.55;3.15;;;;;;;;;;5090596;28;20437;-67
2023/01/03 04:37:57;;;;;;;11.55;3.58;;;;;;;;;;5101636;28;21530;-67
2023/01/03 04:40:23;;;;;;;6.95;3.00;;;;;;;;;;5101611;28;20483;-67
2023/01/03 04:45:34;;;;;;;9.50;3.10;;;;;;;;;;5091901;28;20131;-67
2023/01/03 04:48:01;;;;;;;11.38;3.15;;;;;;;;;;5098323;28;20039;-67
2023/01/03 04:50:28;;;;;;;9.18;3.95;;;;;;;;;;5102119;28;21002;-68
2023/01/03 04:52:54;;;;;;;9.32;3.70;;;;;;;;;;5099165;28;20431;-68
2023/01/03 04:55:20;;;;;;;9.73;3.45;;;;;;;;;;5100919;28;20417;-67
2023/01/03 04:57:47;;;;;;;7.18;2.70;;;;;;;;;;5095390;28;20032;-67
2023/01/03 05:00:13;;;;;;;6.30;3.03;;;;;;;;;;5100984;28;20078;-67
2023/01/03 05:02:39;;;;;;;10.60;3.30;;;;;;;;;;5098237;28;20083;-68
2023/01/03 05:05:06;;;;;;;7.15;3.17;;;;;;;;;;5098824;28;20047;-67
2023/01/03 05:07:32;;;;;;;12.30;4.18;;;;;;;;;;5097821;28;20055;-67
2023/01/03 05:09:58;;;;;;;11.25;4.00;;;;;;;;;;5097559;28;20713;-67
2023/01/03 05:12:25;;;;;;;10.82;4.30;;;;;;;;;;5099202;28;20126;-67
2023/01/03 05:14:51;;;;;;;9.30;4.05;;;;;;;;;;5098778;28;20046;-67
2023/01/03 05:17:19;;;;;;;11.05;4.05;;;;;;;;;;5089713;28;20054;-67
2023/01/03 05:28:00;;;;;;;13.85;5.45;;;;;;;;;;5100098;28;20125;-68
2023/01/03 05:30:27;;;;;;;11.55;4.60;;;;;;;;;;5091313;28;20114;-67
2023/01/03 05:32:53;;;;;;;14.90;4.47;;;;;;;;;;5089368;28;20096;-68
2023/01/03 05:35:19;;;;;;;8.48;4.45;;;;;;;;;;5099168;28;20123;-68
2023/01/03 05:37:45;;;;;;;10.65;4.47;;;;;;;;;;5098388;28;20039;-68
2023/01/03 05:40:12;;;;;;;11.15;4.55;;;;;;;;;;5100228;28;20060;-67
2023/01/03 05:42:39;;;;;;;9.73;4.72;;;;;;;;;;5080508;28;20043;-68
2023/01/03 05:45:05;;;;;;;15.38;4.93;;;;;;;;;;5074421;28;20349;-68
2023/01/03 05:47:31;;;;;;;10.45;4.50;;;;;;;;;;5099898;28;20035;-67
2023/01/03 05:49:57;;;;;;;13.05;4.68;;;;;;;;;;5089335;28;20039;-68
2023/01/03 05:52:24;;;;;;;11.05;4.63;;;;;;;;;;5098476;28;20235;-67
2023/01/03 05:54:50;;;;;;;10.73;4.43;;;;;;;;;;5091856;28;20031;-68
2023/01/03 05:57:16;;;;;;;13.57;4.70;;;;;;;;;;5099435;28;20040;-67
2023/01/03 05:59:42;;;;;;;14.73;4.70;;;;;;;;;;5101053;28;20039;-67
2023/01/03 06:02:08;;;;;;;7.90;4.25;;;;;;;;;;5103813;28;20100;-67
2023/01/03 06:04:34;;;;;;;10.10;5.00;;;;;;;;;;5116199;27;20056;-68
2023/01/03 06:07:00;;;;;;;8.45;4.60;;;;;;;;;;5102885;28;20043;-68
2023/01/03 06:09:27;;;;;;;10.98;5.28;;;;;;;;;;5103847;27;20039;-68
2023/01/03 06:11:53;;;;;;;19.02;7.22;;;;;;;;;;5101561;28;20075;-67
2023/01/03 06:14:19;;;;;;;14.13;5.18;;;;;;;;;;5101261;28;20093;-68
2023/01/03 06:19:30;;;;;;;11.40;6.15;;;;;;;;;;5101615;28;20669;-68
2023/01/03 06:21:56;;;;;;;16.08;7.13;;;;;;;;;;5104993;28;20435;-68
2023/01/03 06:24:22;;;;;;;14.35;7.72;;;;;;;;;;5103435;28;20035;-67
2023/01/03 06:26:49;;;;;;;19.00;8.98;;;;;;;;;;5095348;28;20043;-68
2023/01/03 06:29:15;;;;;;;17.48;8.45;;;;;;;;;;5105173;28;20055;-68
2023/01/03 06:31:41;;;;;;;15.98;8.18;;;;;;;;;;5104320;28;20123;-67
2023/01/03 06:34:07;;;;;;;23.48;9.35;;;;;;;;;;5103477;28;20064;-68
2023/01/03 06:36:33;;;;;;;19.50;10.02;;;;;;;;;;5099790;28;20130;-67
2023/01/03 06:39:00;;;;;;;21.38;10.73;;;;;;;;;;5102726;28;20088;-67
2023/01/03 06:41:26;;;;;;;22.90;11.90;;;;;;;;;;5093471;28;20138;-67
2023/01/03 06:43:54;;;;;;;23.75;11.82;;;;;;;;;;5097343;27;20135;-67
2023/01/03 06:54:42;;;;;;;29.73;13.80;;;;;;;;;;5101538;27;20044;-68
2023/01/03 06:57:08;;;;;;;26.02;12.63;;;;;;;;;;5102278;27;20040;-68
2023/01/03 06:59:35;;;;;;;32.95;15.80;;;;;;;;;;5099340;28;20031;-68
2023/01/03 07:02:01;;;;;;;29.67;14.18;;;;;;;;;;5102452;28;20133;-67
2023/01/03 07:04:27;;;;;;;27.98;13.90;;;;;;;;;;5093632;28;20140;-67
2023/01/03 07:06:53;;;;;;;29.35;13.10;;;;;;;;;;5092562;28;20487;-67
2023/01/03 07:09:19;;;;;;;28.40;14.75;;;;;;;;;;5091570;28;20043;-68
2023/01/03 07:11:46;;;;;;;28.10;13.73;;;;;;;;;;5101746;28;20040;-66
2023/01/03 07:14:12;;;;;;;30.98;14.40;;;;;;;;;;5100200;28;20503;-66
2023/01/03 07:16:40;;;;;;;35.63;17.15;;;;;;;;;;5101320;27;20109;-66
2023/01/03 07:19:07;;;;;;;30.77;15.20;;;;;;;;;;5100264;27;20044;-66
2023/01/03 07:21:34;;;;;;;31.52;15.95;;;;;;;;;;5100400;27;20088;-66
2023/01/03 07:24:01;;;;;;;32.83;15.70;;;;;;;;;;5094554;28;20436;-66
2023/01/03 07:26:29;;;;;;;36.15;15.63;;;;;;;;;;5100434;28;20116;-66
2023/01/03 07:28:56;;;;;;;34.90;17.42;;;;;;;;;;5100096;28;20434;-66
2023/01/03 07:31:22;;;;;;;34.67;18.83;;;;;;;;;;5103045;28;20043;-67
2023/01/03 07:33:48;;;;;;;35.25;18.38;;;;;;;;;;5101192;27;20532;-66
2023/01/03 07:36:15;;;;;;;35.13;18.00;;;;;;;;;;5102970;27;20078;-65
2023/01/03 07:38:42;;;;;;;35.20;17.75;;;;;;;;;;5102197;27;20130;-66
2023/01/03 07:41:09;;;;;;;35.00;17.90;;;;;;;;;;5102496;28;20048;-66
2023/01/03 07:43:36;;;;;;;37.25;16.98;;;;;;;;;;5104443;28;20384;-66
2023/01/03 07:46:14;;;;;;;38.53;18.92;;;;;;;;;;5103131;28;20479;-66
2023/01/03 07:48:41;;;;;;;36.25;17.52;;;;;;;;;;5093808;28;20083;-66
2023/01/03 07:51:08;;;;;;;34.83;17.50;;;;;;;;;;5094163;28;20055;-66
2023/01/03 07:53:35;;;;;;;33.70;18.30;;;;;;;;;;5107537;27;20043;-66
2023/01/03 07:56:02;;;;;;;35.65;19.05;;;;;;;;;;5105922;28;20068;-66
2023/01/03 07:58:28;;;;;;;31.90;17.67;;;;;;;;;;5093668;28;20525;-66
2023/01/03 08:00:54;;;;;;;34.88;18.77;;;;;;;;;;5094973;28;20104;-66
2023/01/03 08:03:20;;;;;;;36.65;20.05;;;;;;;;;;5102286;27;20051;-66
2023/01/03 08:05:47;;;;;;;38.08;19.33;;;;;;;;;;5094066;28;20486;-67
2023/01/03 08:08:13;;;;;;;37.22;19.30;;;;;;;;;;5077279;27;20933;-67
2023/01/03 08:13:24;;;;;;;35.95;18.80;;;;;;;;;;5096739;27;20043;-67
2023/01/03 08:15:51;;;;;;;40.78;19.02;;;;;;;;;;5100753;27;20075;-66
2023/01/03 08:18:19;;;;;;;32.42;19.02;;;;;;;;;;5101923;28;20036;-66
2023/01/03 08:20:46;;;;;;;37.28;19.98;;;;;;;;;;5092872;28;20126;-66
2023/01/03 08:23:13;;;;;;;36.10;18.60;;;;;;;;;;5091137;28;20138;-66
2023/01/03 08:25:39;;;;;;;37.47;20.77;;;;;;;;;;5101140;28;20051;-66
2023/01/03 08:28:06;;;;;;;41.20;21.10;;;;;;;;;;5093574;28;20040;-66
2023/01/03 08:30:34;;;;;;;39.22;19.95;;;;;;;;;;5100656;28;20105;-67
2023/01/03 08:33:02;;;;;;;39.75;21.75;;;;;;;;;;5102360;28;20036;-67
2023/01/03 08:35:29;;;;;;;42.40;22.80;;;;;;;;;;5094820;28;20096;-67
2023/01/03 08:37:55;;;;;;;45.28;24.52;;;;;;;;;;5102064;28;20469;-67
2023/01/03 08:40:22;;;;;;;47.05;24.20;;;;;;;;;;5103271;28;20548;-67
2023/01/03 08:42:48;;;;;;;48.25;23.98;;;;;;;;;;5094553;28;20413;-66
2023/01/03 08:45:16;;;;;;;50.63;23.10;;;;;;;;;;5094032;28;20147;-67
2023/01/03 08:47:43;;;;;;;42.65;22.63;;;;;;;;;;5098229;28;20097;-66
2023/01/03 08:50:10;;;;;;;40.67;23.13;;;;;;;;;;5106887;28;20214;-67
2023/01/03 08:52:36;;;;;;;44.13;22.90;;;;;;;;;;5095497;28;20059;-67
2023/01/03 08:55:03;;;;;;;46.97;23.92;;;;;;;;;;5104622;28;20359;-66
2023/01/03 08:57:29;;;;;;;47.53;23.75;;;;;;;;;;5105570;28;20047;-67
2023/01/03 08:59:55;;;;;;;73.93;26.17;;;;;;;;;;5104432;28;20135;-67
2023/01/03 09:02:21;;;;;;;121.10;29.35;;;;;;;;;;5104210;28;20043;-67
2023/01/03 09:04:47;;;;;;;106.93;29.38;;;;;;;;;;5104951;28;20092;-67
2023/01/03 09:07:14;;;;;;;181.98;31.38;;;;;;;;;;5105454;27;20058;-67
2023/01/03 09:09:40;;;;;;;176.85;29.13;;;;;;;;;;5092252;28;20100;-67
2023/01/03 09:12:06;;;;;;;146.32;25.25;;;;;;;;;;5105572;28;20047;-67
2023/01/03 09:14:32;;;;;;;128.88;23.52;;;;;;;;;;5102752;28;20510;-67
2023/01/03 09:16:58;;;;;;;162.30;27.85;;;;;;;;;;5089328;28;20054;-66
2023/01/03 09:19:24;;;;;;;139.35;24.77;;;;;;;;;;5103746;28;20636;-67
2023/01/03 09:21:51;;;;;;;225.38;32.38;;;;;;;;;;5100350;28;20051;-67
2023/01/03 09:24:17;;;;;;;292.15;37.58;;;;;;;;;;5090783;28;20098;-67
2023/01/03 09:26:43;;;;;;;289.65;38.35;;;;;;;;;;5105742;28;20039;-67
2023/01/03 09:29:09;;;;;;;158.27;28.75;;;;;;;;;;5103639;28;20031;-66
2023/01/03 09:31:35;;;;;;;202.38;30.45;;;;;;;;;;5085557;28;20044;-69
2023/01/03 09:34:04;;;;;;;153.68;29.50;;;;;;;;;;5101107;28;20096;-66
2023/01/03 09:36:30;;;;;;;167.75;28.88;;;;;;;;;;5101441;28;20043;-66
2023/01/03 09:38:56;;;;;;;155.48;28.45;;;;;;;;;;5101370;28;20054;-66
2023/01/03 09:41:24;;;;;;;157.48;29.85;;;;;;;;;;5090432;28;20051;-66
2023/01/03 09:43:55;;;;;;;197.15;30.65;;;;;;;;;;5100458;28;20051;-66
2023/01/03 09:46:23;;;;;;;167.05;30.05;;;;;;;;;;5101010;28;20051;-66
2023/01/03 09:48:50;;;;;;;143.73;27.35;;;;;;;;;;5093122;28;20058;-66
2023/01/03 10:05:39;;;;;;;279.88;37.10;;;;;;;;;;5101506;28;20047;-66
2023/01/03 10:08:21;;;;;;;319.48;40.80;;;;;;;;;;5108887;27;20051;-66
2023/01/03 10:10:54;;;;;;;255.98;37.40;;;;;;;;;;5105456;28;20054;-66
2023/01/03 10:13:21;;;;;;;311.48;40.88;;;;;;;;;;5104507;28;20880;-66
2023/01/03 10:16:06;;;;;;;384.25;46.28;;;;;;;;;;5101134;28;20067;-66
2023/01/03 10:18:33;;;;;;;305.10;40.70;;;;;;;;;;5093211;28;20052;-66
2023/01/03 10:21:04;;;;;;;374.85;44.78;;;;;;;;;;5103888;28;20055;-67
2023/01/03 10:23:31;;;;;;;393.45;48.67;;;;;;;;;;5090466;28;20055;-67
2023/01/03 10:25:57;;;;;;;357.13;46.58;;;;;;;;;;5099470;28;20394;-67
2023/01/03 10:28:24;;;;;;;511.88;51.67;;;;;;;;;;5103861;28;20147;-67
2023/01/03 10:30:58;;;;;;;398.48;49.90;;;;;;;;;;5091793;28;20104;-67
2023/01/03 10:33:32;;;;;;;397.95;50.95;;;;;;;;;;5096480;28;20051;-67
2023/01/03 10:35:58;;;;;;;413.98;52.72;;;;;;;;;;5093505;28;20048;-66
2023/01/03 10:38:24;;;;;;;311.45;46.63;;;;;;;;;;5101680;28;20105;-66
2023/01/03 10:40:53;;;;;;;511.42;56.58;;;;;;;;;;5101147;28;20048;-67
2023/01/03 10:43:25;;;;;;;356.75;52.15;;;;;;;;;;5089368;28;20144;-76
2023/01/03 10:45:52;;;;;;;361.85;50.72;;;;;;;;;;5096333;28;20235;-67
2023/01/03 10:48:19;;;;;;;286.15;51.13;;;;;;;;;;5092717;28;20048;-66
2023/01/03 10:50:45;;;;;;;387.42;53.80;;;;;;;;;;5101859;28;20509;-66
2023/01/03 10:53:13;;;;;;;314.50;52.67;;;;;;;;;;5099404;27;20040;-66
2023/01/03 10:55:45;;;;;;;328.45;56.25;;;;;;;;;;5113614;27;20111;-66
2023/01/03 10:58:20;;;;;;;320.35;55.80;;;;;;;;;;5099352;27;20048;-67
2023/01/03 11:00:46;;;;;;;322.98;58.10;;;;;;;;;;5106684;27;20039;-67
2023/01/03 11:03:15;;;;;;;282.98;57.53;;;;;;;;;;5105175;27;20491;-66
2023/01/03 11:05:42;;;;;;;296.58;60.47;;;;;;;;;;5093589;28;20043;-66
2023/01/03 11:08:15;;;;;;;296.52;58.60;;;;;;;;;;5097797;28;20044;-66
2023/01/03 11:10:55;;;;;;;304.13;60.63;;;;;;;;;;5108274;28;20429;-66
2023/01/03 11:13:23;;;;;;;270.50;60.83;;;;;;;;;;5107221;28;20039;-66
2023/01/03 11:15:54;;;;;;;259.13;57.00;;;;;;;;;;5106272;28;20355;-66
2023/01/03 11:18:20;;;;;;;260.00;62.92;;;;;;;;;;5107921;28;20073;-66
2023/01/03 11:20:53;;;;;;;250.48;61.13;;;;;;;;;;5102591;27;20036;-66
2023/01/03 11:23:28;;;;;;;216.45;60.28;;;;;;;;;;5105958;27;20044;-66
2023/01/03 11:26:04;;;;;;;220.25;62.38;;;;;;;;;;5078958;28;20502;-66
2023/01/03 11:28:33;;;;;;;246.00;61.38;;;;;;;;;;5108248;28;20601;-66
2023/01/03 11:31:00;;;;;;;215.10;58.70;;;;;;;;;;5090319;28;20047;-66
2023/01/03 11:33:44;;;;;;;228.13;60.53;;;;;;;;;;5108926;28;20050;-66
2023/01/03 11:36:26;;;;;;;220.38;59.58;;;;;;;;;;5094815;28;20039;-66
2023/01/03 11:38:53;;;;;;;222.98;62.95;;;;;;;;;;5102517;28;20118;-66
2023/01/03 11:41:26;;;;;;;194.60;59.15;;;;;;;;;;5092967;28;20063;-66
2023/01/03 11:44:06;;;;;;;200.40;60.92;;;;;;;;;;5095337;28;20085;-66
2023/01/03 11:46:33;;;;;;;222.68;61.80;;;;;;;;;;5104214;28;20458;-66
2023/01/03 11:49:08;;;;;;;207.20;60.90;;;;;;;;;;5094420;27;20761;-66
2023/01/03 11:51:43;;;;;;;199.32;60.65;;;;;;;;;;5095216;28;20047;-66
2023/01/03 11:54:20;;;;;;;229.57;60.10;;;;;;;;;;5103657;28;20525;-66
2023/01/03 11:56:47;;;;;;;199.30;60.72;;;;;;;;;;5100176;28;20054;-66
2023/01/03 11:59:14;;;;;;;220.90;64.60;;;;;;;;;;5101402;28;20487;-66
2023/01/03 12:01:45;;;;;;;215.70;62.85;;;;;;;;;;5097687;28;20058;-66
2023/01/03 12:04:11;;;;;;;186.95;63.13;;;;;;;;;;5102630;27;20043;-65
2023/01/03 12:06:53;;;;;;;191.00;62.33;;;;;;;;;;5100017;28;20124;-66
2023/01/03 12:09:27;;;;;;;193.02;62.55;;;;;;;;;;5096150;28;20056;-66
2023/01/03 12:12:00;;;;;;;182.43;62.45;;;;;;;;;;5094738;28;20083;-66
2023/01/03 12:14:38;;;;;;;175.85;59.03;;;;;;;;;;5107486;28;20040;-66
2023/01/03 12:17:15;;;;;;;181.40;59.70;;;;;;;;;;5096816;27;20568;-65
2023/01/03 12:19:43;;;;;;;179.23;59.97;;;;;;;;;;5107204;27;20036;-65
2023/01/03 12:22:15;;;;;;;171.80;58.60;;;;;;;;;;5098461;28;20521;-65
2023/01/03 12:24:42;;;;;;;176.50;59.33;;;;;;;;;;5106720;28;20048;-66
2023/01/03 12:27:14;;;;;;;180.07;59.40;;;;;;;;;;5103934;28;20047;-66
2023/01/03 12:29:45;;;;;;;160.32;57.72;;;;;;;;;;5107233;27;20044;-65
2023/01/03 12:32:15;;;;;;;147.43;56.55;;;;;;;;;;5107136;27;20039;-66
2023/01/03 12:34:57;;;;;;;148.70;56.28;;;;;;;;;;5107318;27;20043;-65
2023/01/03 12:37:24;;;;;;;130.27;54.13;;;;;;;;;;5105900;28;20511;-66
2023/01/03 12:39:55;;;;;;;143.98;54.65;;;;;;;;;;5105563;27;20043;-65
2023/01/03 12:42:22;;;;;;;133.98;53.95;;;;;;;;;;5107956;27;20050;-66
2023/01/03 12:44:54;;;;;;;132.93;54.25;;;;;;;;;;5106315;27;20132;-66
2023/01/03 12:47:25;;;;;;;121.38;48.50;;;;;;;;;;5104445;28;20046;-66
2023/01/03 12:49:54;;;;;;;128.55;52.30;;;;;;;;;;5105585;28;20063;-66
2023/01/03 12:52:22;;;;;;;116.18;51.15;;;;;;;;;;5105676;28;20031;-66
2023/01/03 12:54:54;;;;;;;117.57;49.45;;;;;;;;;;5105231;28;20043;-66
2023/01/03 12:57:24;;;;;;;112.88;47.17;;;;;;;;;;5100811;28;20043;-66
2023/01/03 12:59:57;;;;;;;102.30;45.38;;;;;;;;;;5102783;28;20047;-66
2023/01/03 13:02:36;;;;;;;108.28;44.58;;;;;;;;;;5104394;28;20040;-67
2023/01/03 13:05:12;;;;;;;98.38;42.58;;;;;;;;;;5086204;28;20055;-66
2023/01/03 13:07:40;;;;;;;97.80;43.42;;;;;;;;;;5106718;28;20039;-67
2023/01/03 13:10:09;;;;;;;99.80;41.33;;;;;;;;;;5106113;28;20039;-67
2023/01/03 13:12:38;;;;;;;100.28;43.28;;;;;;;;;;5098406;28;20396;-67
2023/01/03 13:15:14;;;;;;;95.10;40.88;;;;;;;;;;5089039;28;20088;-78
2023/01/03 13:17:43;;;;;;;83.35;37.85;;;;;;;;;;5091711;28;20054;-70
2023/01/03 13:20:26;;;;;;;83.75;38.97;;;;;;;;;;5101971;28;20070;-70
2023/01/03 13:22:53;;;;;;;81.88;37.70;;;;;;;;;;5103360;28;20055;-66
2023/01/03 13:25:26;;;;;;;85.60;37.47;;;;;;;;;;5104779;28;20044;-70
2023/01/03 13:27:53;;;;;;;85.32;36.70;;;;;;;;;;5104257;28;20367;-67
2023/01/03 13:30:21;;;;;;;78.03;35.95;;;;;;;;;;5096463;28;20058;-67
2023/01/03 13:32:52;;;;;;;81.57;37.47;;;;;;;;;;5104256;28;20047;-67
2023/01/03 13:35:20;;;;;;;81.22;36.33;;;;;;;;;;5101594;28;20036;-67
2023/01/03 13:37:49;;;;;;;81.75;33.78;;;;;;;;;;5106911;27;20094;-67
2023/01/03 13:40:23;;;;;;;87.88;37.40;;;;;;;;;;5102679;28;20080;-67
2023/01/03 13:43:01;;;;;;;69.97;33.80;;;;;;;;;;5087968;28;20056;-67
2023/01/03 13:45:29;;;;;;;84.07;36.60;;;;;;;;;;5072274;28;20130;-67
2023/01/03 13:47:55;;;;;;;80.80;34.70;;;;;;;;;;5070966;28;20380;-67
2023/01/03 13:50:26;;;;;;;77.80;34.30;;;;;;;;;;5089056;28;20039;-67
2023/01/03 13:52:56;;;;;;;85.55;34.15;;;;;;;;;;5091329;28;20112;-66
2023/01/03 13:55:40;;;;;;;79.80;34.50;;;;;;;;;;5087830;28;20123;-66
2023/01/03 13:58:26;;;;;;;86.07;36.97;;;;;;;;;;5068164;28;20491;-66
2023/01/03 14:00:54;;;;;;;82.72;36.75;;;;;;;;;;5067537;28;20087;-67
2023/01/03 14:03:21;;;;;;;78.85;37.15;;;;;;;;;;5080314;28;20097;-67
2023/01/03 14:05:52;;;;;;;79.57;35.33;;;;;;;;;;5081164;28;20628;-66
2023/01/03 14:08:24;;;;;;;80.38;34.85;;;;;;;;;;5060747;28;20056;-66
2023/01/03 14:11:16;;;;;;;88.40;37.13;;;;;;;;;;5077375;28;20373;-66
2023/01/03 14:13:46;;;;;;;82.15;34.92;;;;;;;;;;5080045;28;20048;-66
2023/01/03 14:16:15;;;;;;;77.53;34.55;;;;;;;;;;5078514;28;20078;-67
2023/01/03 14:18:45;;;;;;;77.97;35.95;;;;;;;;;;5077338;28;20040;-66
2023/01/03 14:21:16;;;;;;;83.03;34.75;;;;;;;;;;5081621;28;20398;-66
2023/01/03 14:23:43;;;;;;;74.55;34.97;;;;;;;;;;5081018;28;20071;-67
2023/01/03 14:26:13;;;;;;;75.63;33.05;;;;;;;;;;5072705;28;20048;-66
2023/01/03 14:28:39;;;;;;;77.03;33.42;;;;;;;;;;5094705;28;20072;-66
2023/01/03 14:31:07;;;;;;;73.22;33.80;;;;;;;;;;5090715;28;20044;-66
2023/01/03 14:33:36;;;;;;;78.63;33.95;;;;;;;;;;5092671;28;20043;-73
2023/01/03 14:36:03;;;;;;;76.85;32.88;;;;;;;;;;5092319;28;20068;-67
2023/01/03 14:38:31;;;;;;;69.07;33.33;;;;;;;;;;5091783;28;20038;-66
2023/01/03 14:40:57;;;;;;;70.78;31.30;;;;;;;;;;5096449;27;20066;-66
2023/01/03 14:43:25;;;;;;;60.83;30.90;;;;;;;;;;5108575;27;20043;-68
2023/01/03 14:45:53;;;;;;;59.00;31.40;;;;;;;;;;5107398;27;20043;-68
2023/01/03 14:48:19;;;;;;;64.03;30.67;;;;;;;;;;5094290;28;20491;-67
2023/01/03 14:50:46;;;;;;;69.57;32.42;;;;;;;;;;5096739;27;20044;-68
2023/01/03 14:53:13;;;;;;;61.28;29.80;;;;;;;;;;5096635;28;20043;-67
2023/01/03 14:55:40;;;;;;;74.63;32.03;;;;;;;;;;5108832;27;20039;-67
2023/01/03 14:58:21;;;;;;;57.53;28.33;;;;;;;;;;5109162;28;20036;-67
2023/01/03 15:00:48;;;;;;;55.95;29.55;;;;;;;;;;5106148;28;20058;-67
2023/01/03 15:03:15;;;;;;;61.45;30.50;;;;;;;;;;5108958;28;20081;-67
2023/01/03 15:05:42;;;;;;;59.45;29.65;;;;;;;;;;5107785;27;20047;-68
2023/01/03 15:08:09;;;;;;;55.60;28.35;;;;;;;;;;5108320;28;20048;-67
2023/01/03 15:10:35;;;;;;;51.63;28.05;;;;;;;;;;5097767;28;20051;-67
2023/01/03 15:13:01;;;;;;;52.90;27.45;;;;;;;;;;5106729;27;20079;-67
2023/01/03 15:15:32;;;;;;;45.00;25.77;;;;;;;;;;5088723;27;20067;-68
2023/01/03 15:18:01;;;;;;;54.90;27.50;;;;;;;;;;5106050;27;20061;-67
2023/01/03 15:20:34;;;;;;;54.95;27.13;;;;;;;;;;5088772;28;20585;-67
2023/01/03 15:23:00;;;;;;;55.17;27.88;;;;;;;;;;5102529;27;20589;-66
2023/01/03 15:25:32;;;;;;;49.58;25.92;;;;;;;;;;5090817;28;20378;-66
2023/01/03 15:28:13;;;;;;;47.83;26.60;;;;;;;;;;5090054;28;20043;-66